createdAt,value
2023-05-20T00:02:20.095Z,98874.19
2023-05-20T00:06:37.912Z,98873.41
2023-05-20T00:10:56.547Z,98861.13
2023-05-20T00:15:14.759Z,98853.56
2023-05-20T00:19:32.249Z,98853.72
2023-05-20T00:23:50.887Z,98866.19
2023-05-20T00:28:08.872Z,98873.19
2023-05-20T00:32:27.220Z,98871.97
2023-05-20T00:36:45.001Z,98862.59
2023-05-20T00:41:03.345Z,98858.75
2023-05-20T00:45:21.021Z,98857.53
2023-05-20T00:49:38.715Z,98845.75
2023-05-20T00:53:57.129Z,98844.09
2023-05-20T00:58:14.897Z,98843.31
2023-05-20T01:02:33.227Z,98840.91
2023-05-20T01:06:51.037Z,98831.47
2023-05-20T01:11:17.307Z,98829.50
2023-05-20T01:15:36.199Z,98831.84
2023-05-20T01:19:56.467Z,98838.06
2023-05-20T01:24:14.813Z,98832.88
2023-05-20T01:28:39.533Z,98823.22
2023-05-20T01:33:11.941Z,98823.69
2023-05-20T01:37:31.616Z,98822.44
2023-05-20T01:41:51.652Z,98823.28
2023-05-20T01:46:09.385Z,98827.25
2023-05-20T01:50:27.479Z,98808.84
2023-05-20T01:54:51.630Z,98821.03
2023-05-20T01:59:09.623Z,98828.84
2023-05-20T02:03:29.864Z,98821.03
2023-05-20T02:07:47.440Z,98814.03
2023-05-20T02:12:05.699Z,98822.47
2023-05-20T02:16:24.145Z,98831.69
2023-05-20T02:20:42.876Z,98833.28
2023-05-20T02:25:01.200Z,98837.69
2023-05-20T02:29:22.754Z,98827.66
2023-05-20T02:33:40.410Z,98833.50
2023-05-20T02:37:58.748Z,98837.44
2023-05-20T02:42:16.776Z,98841.09
2023-05-20T02:46:34.598Z,98848.09
2023-05-20T02:50:54.576Z,98841.09
2023-05-20T02:55:12.556Z,98842.91
2023-05-20T02:59:30.754Z,98845.50
2023-05-20T03:03:48.602Z,98842.50
2023-05-20T03:08:12.707Z,98848.13
2023-05-20T03:12:31.402Z,98843.91
2023-05-20T03:16:50.684Z,98840.50
2023-05-20T03:21:10.009Z,98846.66
2023-05-20T03:25:27.920Z,98849.69
2023-05-20T03:29:48.464Z,98852.28
2023-05-20T03:34:07.168Z,98849.50
2023-05-20T03:38:25.767Z,98853.88
2023-05-20T03:42:43.450Z,98833.22
2023-05-20T03:47:01.314Z,98846.25
2023-05-20T03:51:19.599Z,98840.84
2023-05-20T03:55:37.136Z,98844.63
2023-05-20T03:59:55.178Z,98842.03
2023-05-20T04:04:12.838Z,98852.22
2023-05-20T04:08:31.216Z,98842.00
2023-05-20T04:12:50.264Z,98838.75
2023-05-20T04:17:08.680Z,98843.19
2023-05-20T04:21:26.353Z,98845.22
2023-05-20T04:25:44.936Z,98838.91
2023-05-20T04:30:02.788Z,98850.97
2023-05-20T04:34:27.035Z,98845.75
2023-05-20T04:38:45.499Z,98846.94
2023-05-20T04:43:04.189Z,98851.53
2023-05-20T04:47:22.402Z,98857.53
2023-05-20T04:51:40.045Z,98860.13
2023-05-20T04:55:58.038Z,98857.13
2023-05-20T05:00:16.254Z,98862.50
2023-05-20T05:04:34.749Z,98873.41
2023-05-20T05:08:53.002Z,98876.72
2023-05-20T05:13:10.406Z,98877.59
2023-05-20T05:17:29.661Z,98883.59
2023-05-20T05:21:49.948Z,98885.97
2023-05-20T05:26:07.936Z,98893.78
2023-05-20T05:30:26.566Z,98894.16
2023-05-20T05:34:46.225Z,98889.69
2023-05-20T05:39:05.614Z,98884.25
2023-05-20T05:43:23.125Z,98884.25
2023-05-20T05:47:41.672Z,98879.56
2023-05-20T05:51:59.331Z,98877.22
2023-05-20T05:56:18.192Z,98887.41
2023-05-20T06:00:36.152Z,98885.06
2023-05-20T06:04:54.161Z,98880.63
2023-05-20T06:09:12.721Z,98877.13
2023-05-20T06:13:30.874Z,98883.84
2023-05-20T06:17:48.509Z,98879.16
2023-05-20T06:22:06.554Z,98876.69
2023-05-20T06:26:24.257Z,98885.03
2023-05-20T06:30:42.534Z,98876.22
2023-05-20T06:35:01.003Z,98867.66
2023-05-20T06:39:20.806Z,98859.38
2023-05-20T06:43:38.416Z,98860.88
2023-05-20T06:47:56.668Z,98867.94
2023-05-20T06:52:14.400Z,98873.22
2023-05-20T06:56:32.597Z,98864.38
2023-05-20T07:00:50.620Z,98869.50
2023-05-20T07:05:08.930Z,98867.34
2023-05-20T07:09:27.447Z,98860.00
2023-05-20T07:13:45.036Z,98864.13
2023-05-20T07:18:03.698Z,98852.09
2023-05-20T07:22:21.322Z,98853.56
2023-05-20T07:26:39.818Z,98845.72
2023-05-20T07:30:59.100Z,98840.53
2023-05-20T07:35:17.038Z,98841.38
2023-05-20T07:39:35.344Z,98841.94
2023-05-20T07:43:58.445Z,98852.69
2023-05-20T07:48:16.079Z,98844.28
2023-05-20T07:52:43.944Z,98842.31
2023-05-20T07:57:12.542Z,98847.47
2023-05-20T08:01:30.435Z,98858.44
2023-05-20T08:05:48.145Z,98846.94
2023-05-20T08:10:07.785Z,98846.69
2023-05-20T08:14:26.073Z,98857.09
2023-05-20T08:18:43.638Z,98848.09
2023-05-20T08:23:02.284Z,98858.72
2023-05-20T08:27:19.835Z,98848.56
2023-05-20T08:31:38.613Z,98853.72
2023-05-20T08:35:56.649Z,98845.22
2023-05-20T08:40:15.366Z,98848.25
2023-05-20T08:44:34.566Z,98842.47
2023-05-20T08:48:52.362Z,98846.50
2023-05-20T08:53:11.787Z,98844.06
2023-05-20T08:57:30.277Z,98838.91
2023-05-20T09:01:47.899Z,98841.22
2023-05-20T09:06:07.692Z,98849.84
2023-05-20T09:10:27.450Z,98855.00
2023-05-20T09:14:45.275Z,98845.47
2023-05-20T09:19:06.970Z,98857.94
2023-05-20T09:23:29.976Z,98857.00
2023-05-20T09:27:48.164Z,98858.38
2023-05-20T09:32:06.024Z,98846.88
2023-05-20T09:36:33.146Z,98857.22
2023-05-20T09:40:51.236Z,98859.97
2023-05-20T09:45:12.064Z,98853.69
2023-05-20T09:49:32.498Z,98832.53
2023-05-20T09:53:52.041Z,98851.97
2023-05-20T09:58:16.130Z,98842.22
2023-05-20T10:02:37.120Z,98830.38
2023-05-20T10:07:38.014Z,98839.16
2023-05-20T10:12:15.355Z,98840.03
2023-05-20T10:16:59.086Z,98831.97
2023-05-20T10:21:20.175Z,98826.44
2023-05-20T10:25:37.752Z,98833.88
2023-05-20T10:29:59.050Z,98829.59
2023-05-20T10:34:20.608Z,98825.66
2023-05-20T10:38:53.518Z,98839.59
2023-05-20T10:43:14.038Z,98825.25
2023-05-20T10:47:32.591Z,98818.94
2023-05-20T10:51:53.212Z,98853.66
2023-05-20T10:56:27.280Z,98816.69
2023-05-20T11:00:46.022Z,98830.25
2023-05-20T11:05:04.992Z,98831.34
2023-05-20T11:09:23.582Z,98837.16
2023-05-20T11:13:41.734Z,98831.38
2023-05-20T11:18:03.170Z,98845.13
2023-05-20T11:22:22.415Z,98854.25
2023-05-20T11:26:42.886Z,98852.72
2023-05-20T11:31:01.385Z,98844.91
2023-05-20T11:35:26.846Z,98824.56
2023-05-20T11:39:45.192Z,98852.59
2023-05-20T11:44:04.195Z,98852.22
2023-05-20T11:48:21.971Z,98837.56
2023-05-20T11:52:40.018Z,98835.66
2023-05-20T11:56:57.549Z,98841.44
2023-05-20T12:01:22.387Z,98871.19
2023-05-20T12:05:41.089Z,98812.16
2023-05-20T12:10:00.231Z,98820.22
2023-05-20T12:14:18.573Z,98851.75
2023-05-20T12:18:37.538Z,98887.34
2023-05-20T12:22:55.124Z,98868.72
2023-05-20T12:27:13.213Z,98853.78
2023-05-20T12:31:34.686Z,98818.16
2023-05-20T12:35:52.846Z,98819.03
2023-05-20T12:40:12.967Z,98797.84
2023-05-20T12:44:32.125Z,98820.78
2023-05-20T12:48:49.822Z,98782.31
2023-05-20T12:53:09.458Z,98753.00
2023-05-20T12:57:27.327Z,98739.66
2023-05-20T13:01:45.103Z,98715.81
2023-05-20T13:06:03.224Z,98705.53
2023-05-20T13:10:20.922Z,98717.38
2023-05-20T13:14:39.319Z,98776.53
2023-05-20T13:18:57.744Z,98814.34
2023-05-20T13:23:15.479Z,98883.63
2023-05-20T13:27:33.115Z,99010.38
2023-05-20T13:31:50.038Z,99107.25
2023-05-20T13:36:08.428Z,99177.97
2023-05-20T13:40:26.019Z,99321.66
2023-05-20T13:44:43.966Z,99462.56
2023-05-20T13:49:03.298Z,99578.44
2023-05-20T13:53:20.819Z,99582.63
2023-05-20T13:57:39.877Z,99618.34
2023-05-20T14:01:57.497Z,99558.34
2023-05-20T14:06:19.072Z,99535.22
2023-05-20T14:10:36.880Z,99500.78
2023-05-20T14:14:55.308Z,99477.44
2023-05-20T14:19:12.914Z,98713.63
2023-05-20T14:23:31.856Z,98705.44
2023-05-20T14:27:50.681Z,98687.09
2023-05-20T14:32:09.385Z,98685.53
2023-05-20T14:36:28.026Z,98680.09
2023-05-20T14:40:46.049Z,98669.31
2023-05-20T14:45:05.931Z,98664.38
2023-05-20T14:49:24.326Z,98662.47
2023-05-20T14:53:42.410Z,98655.53
2023-05-20T14:58:00.941Z,98642.56
2023-05-20T15:02:19.903Z,98632.56
2023-05-20T15:06:38.617Z,98627.31
2023-05-20T15:10:56.787Z,98625.84
2023-05-20T15:15:15.481Z,98633.00
2023-05-20T15:19:33.282Z,98619.91
2023-05-20T15:23:51.516Z,98613.22
2023-05-20T15:28:09.932Z,98608.25
2023-05-20T15:32:27.712Z,98603.13
2023-05-20T15:36:45.763Z,98606.06
2023-05-20T15:41:04.970Z,98595.19
2023-05-20T15:45:22.995Z,98584.72
2023-05-20T15:49:41.272Z,98582.88
2023-05-20T15:53:58.938Z,98582.38
2023-05-20T15:58:16.974Z,98564.06
2023-05-20T16:02:36.530Z,98575.09
2023-05-20T16:06:55.152Z,98568.38
2023-05-20T16:11:12.762Z,98574.66
2023-05-20T16:15:37.038Z,98559.88
2023-05-20T16:19:55.208Z,98555.91
2023-05-20T16:24:12.863Z,98566.63
2023-05-20T16:28:31.765Z,98554.88
2023-05-20T16:32:50.594Z,98553.41
2023-05-20T16:37:08.248Z,98552.06
2023-05-20T16:41:26.926Z,98547.81
2023-05-20T16:45:45.016Z,98544.41
2023-05-20T16:50:05.084Z,98544.56
2023-05-20T16:54:22.653Z,98547.38
2023-05-20T16:58:40.835Z,98539.97
2023-05-20T17:02:58.558Z,98539.44
2023-05-20T17:07:16.717Z,98533.75
2023-05-20T17:11:35.628Z,98532.38
2023-05-20T17:15:53.373Z,98528.19
2023-05-20T17:20:12.133Z,98528.28
2023-05-20T17:24:35.051Z,98533.88
2023-05-20T17:28:53.700Z,98533.50
2023-05-20T17:33:13.632Z,98535.13
2023-05-20T17:37:31.659Z,98528.97
2023-05-20T17:41:50.261Z,98524.84
2023-05-20T17:46:08.267Z,98520.66
2023-05-20T17:50:26.079Z,98518.59
2023-05-20T17:54:45.080Z,98540.63
2023-05-20T17:59:03.199Z,98542.53
2023-05-20T18:03:24.287Z,98549.13
2023-05-20T18:07:41.922Z,98541.66
2023-05-20T18:11:59.776Z,98536.41
2023-05-20T18:16:17.557Z,98542.41
2023-05-20T18:20:35.276Z,98537.88
2023-05-20T18:24:53.693Z,98526.03
2023-05-20T18:29:12.550Z,98525.38
2023-05-20T18:33:31.686Z,98531.34
2023-05-20T18:37:50.038Z,98529.53
2023-05-20T18:42:07.538Z,98542.72
2023-05-20T18:46:27.440Z,98542.38
2023-05-20T18:50:44.977Z,98553.69
2023-05-20T18:55:02.653Z,98551.09
2023-05-20T18:59:21.912Z,98544.03
2023-05-20T19:03:44.313Z,98543.50
2023-05-20T19:08:06.221Z,98542.34
2023-05-20T19:12:24.908Z,98536.44
2023-05-20T19:16:44.148Z,98538.50
2023-05-20T19:21:03.037Z,98543.13
2023-05-20T19:25:21.794Z,98542.56
2023-05-20T19:29:39.594Z,98540.59
2023-05-20T19:33:57.224Z,98542.78
2023-05-20T19:38:14.888Z,98545.66
2023-05-20T19:42:33.571Z,98552.78
2023-05-20T19:46:53.191Z,98549.94
2023-05-20T19:51:11.186Z,98546.91
2023-05-20T19:55:28.715Z,98558.88
2023-05-20T19:59:51.686Z,98567.00
2023-05-20T20:04:11.212Z,98557.88
2023-05-20T20:08:30.724Z,98563.00
2023-05-20T20:12:48.938Z,98563.00
2023-05-20T20:17:07.016Z,98566.50
2023-05-20T20:21:26.832Z,98564.47
2023-05-20T20:25:48.201Z,98562.78
2023-05-20T20:30:09.020Z,98556.44
2023-05-20T20:34:26.676Z,98561.41
2023-05-20T20:38:47.392Z,98551.75
2023-05-20T20:43:20.906Z,98552.88
2023-05-20T20:47:41.328Z,98549.47
2023-05-20T20:52:01.775Z,98550.50
2023-05-20T20:56:19.999Z,98544.97
2023-05-20T21:00:40.885Z,98550.06
2023-05-20T21:04:59.457Z,98542.72
2023-05-20T21:09:18.116Z,98541.06
2023-05-20T21:13:36.769Z,98545.69
2023-05-20T21:17:55.763Z,98536.28
2023-05-20T21:22:13.289Z,98538.09
2023-05-20T21:26:30.892Z,98546.94
2023-05-20T21:30:53.610Z,98538.09
2023-05-20T21:35:12.094Z,98540.56
2023-05-20T21:39:34.230Z,98541.59
2023-05-20T21:43:52.827Z,98536.28
2023-05-20T21:48:11.391Z,98538.84
2023-05-20T21:52:30.269Z,98527.31
2023-05-20T21:56:48.420Z,98532.16
2023-05-20T22:01:06.256Z,98539.88
2023-05-20T22:05:24.759Z,98538.63
2023-05-20T22:09:42.370Z,98539.41
2023-05-20T22:14:00.449Z,98540.00
2023-05-20T22:18:19.128Z,98545.09
2023-05-20T22:22:40.474Z,98537.69
2023-05-20T22:26:58.494Z,98544.16
2023-05-20T22:31:16.043Z,98548.13
2023-05-20T22:35:33.968Z,98549.38
2023-05-20T22:39:51.603Z,98546.31
2023-05-20T22:44:10.239Z,98544.94
2023-05-20T22:48:28.781Z,98545.75
2023-05-20T22:52:46.442Z,98525.53
2023-05-20T22:57:05.682Z,98539.03
2023-05-20T23:01:24.437Z,98530.63
2023-05-20T23:05:42.786Z,98537.41
2023-05-20T23:10:00.370Z,98534.25
2023-05-20T23:14:21.185Z,98526.84
2023-05-20T23:18:38.756Z,98519.38
2023-05-20T23:22:57.455Z,98534.44
2023-05-20T23:27:15.940Z,98533.66
2023-05-20T23:31:35.030Z,98527.44
2023-05-20T23:35:53.078Z,98527.63
2023-05-20T23:40:10.640Z,98516.34
2023-05-20T23:44:28.716Z,98523.09
2023-05-20T23:48:50.574Z,98525.81
2023-05-20T23:53:08.498Z,98515.53
2023-05-20T23:57:26.194Z,98507.34
